Time;durP1;ratioP1;P1;durP2;ratioP2;P2;SDS_P1;SDS_P2;PMS_P1;PMS_P2;Temp;Humidity;BMP_temperature;BMP_pressure;BME280_temperature;BME280_humidity;BME280_pressure;Samples;Min_cycle;Max_cycle;Signal;HPM_P1;HPM_P2
2023/01/24 00:01:12;;;;;;;22.47;15.07;;;1.10;99.90;;;;;;5066307;28;20467;-82
2023/01/24 00:03:39;;;;;;;20.70;14.90;;;1.10;99.90;;;;;;5062708;28;20568;-82
2023/01/24 00:06:06;;;;;;;24.30;15.60;;;1.10;99.90;;;;;;5063916;28;20461;-82
2023/01/24 00:08:33;;;;;;;22.30;14.20;;;1.20;99.90;;;;;;5062553;28;20510;-82
2023/01/24 00:11:01;;;;;;;22.20;15.30;;;1.10;99.90;;;;;;5065009;28;20459;-82
2023/01/24 00:13:28;;;;;;;23.30;14.87;;;1.10;99.90;;;;;;5066707;28;20775;-82
2023/01/24 00:16:03;;;;;;;24.83;15.83;;;1.20;99.90;;;;;;5061876;28;20464;-82
2023/01/24 00:18:34;;;;;;;21.93;15.77;;;1.20;99.90;;;;;;5064711;28;20816;-82
2023/01/24 00:21:05;;;;;;;24.70;13.47;;;1.10;99.90;;;;;;5070514;28;20573;-82
2023/01/24 00:23:37;;;;;;;27.53;16.70;;;1.10;99.90;;;;;;5062618;28;20575;-82
2023/01/24 00:26:07;;;;;;;22.37;14.13;;;1.20;99.90;;;;;;5064599;28;20486;-82
2023/01/24 00:28:34;;;;;;;24.43;14.17;;;1.20;99.90;;;;;;5063921;28;20475;-82
2023/01/24 00:31:02;;;;;;;20.87;14.60;;;1.20;99.90;;;;;;5077474;28;20479;-82
2023/01/24 00:33:31;;;;;;;25.07;14.33;;;1.20;99.90;;;;;;5068852;28;20513;-82
2023/01/24 00:35:58;;;;;;;21.10;13.47;;;1.20;99.90;;;;;;5061900;28;20542;-82
2023/01/24 00:38:27;;;;;;;24.87;13.47;;;1.20;99.90;;;;;;5063925;28;20521;-82
2023/01/24 00:40:54;;;;;;;22.10;14.77;;;1.10;99.90;;;;;;5060304;28;20476;-82
2023/01/24 00:43:25;;;;;;;24.40;14.63;;;1.20;99.90;;;;;;5063589;28;20487;-82
2023/01/24 00:45:52;;;;;;;21.93;13.93;;;1.10;99.90;;;;;;5064188;28;20968;-82
2023/01/24 00:48:22;;;;;;;23.20;14.57;;;1.20;99.90;;;;;;5066431;28;20471;-82
2023/01/24 00:50:50;;;;;;;22.70;14.57;;;1.20;99.90;;;;;;5063534;28;20492;-82
2023/01/24 00:53:19;;;;;;;25.30;15.00;;;1.10;99.90;;;;;;5063501;28;21010;-82
2023/01/24 00:55:47;;;;;;;23.97;13.93;;;1.10;99.90;;;;;;5064976;28;20518;-82
2023/01/24 00:58:14;;;;;;;26.80;16.40;;;1.10;99.90;;;;;;5065928;28;20859;-81
2023/01/24 01:00:41;;;;;;;24.53;15.80;;;1.20;99.90;;;;;;5061630;28;20989;-82
2023/01/24 01:03:13;;;;;;;27.97;17.10;;;1.20;99.90;;;;;;5066258;28;20537;-82
2023/01/24 01:05:43;;;;;;;20.63;14.83;;;1.20;99.90;;;;;;5063630;28;20472;-82
2023/01/24 01:08:17;;;;;;;33.63;16.13;;;1.20;99.90;;;;;;5066725;28;20448;-81
2023/01/24 01:10:46;;;;;;;20.23;14.40;;;1.20;99.90;;;;;;5062226;28;20549;-82
2023/01/24 01:13:17;;;;;;;25.17;15.80;;;1.20;99.90;;;;;;5065173;28;20452;-82
2023/01/24 01:15:44;;;;;;;22.30;15.60;;;1.20;99.90;;;;;;5061712;28;20517;-81
2023/01/24 01:18:12;;;;;;;24.87;14.37;;;1.20;99.90;;;;;;5066199;28;20530;-82
2023/01/24 01:20:41;;;;;;;21.97;15.30;;;1.20;99.90;;;;;;5058046;28;20518;-81
2023/01/24 01:23:08;;;;;;;24.77;14.27;;;1.20;99.90;;;;;;5061754;28;20487;-82
2023/01/24 01:25:39;;;;;;;23.83;15.57;;;1.20;99.90;;;;;;5059695;28;20468;-82
2023/01/24 01:28:06;;;;;;;26.50;15.17;;;1.20;99.90;;;;;;5064483;28;20444;-82
2023/01/24 01:30:33;;;;;;;24.53;16.83;;;1.20;99.90;;;;;;5062986;28;20657;-82
2023/01/24 01:33:00;;;;;;;24.67;17.10;;;1.20;99.90;;;;;;5074888;28;20500;-82
2023/01/24 01:35:27;;;;;;;24.77;17.00;;;1.30;99.90;;;;;;5062801;28;20764;-81
2023/01/24 01:37:54;;;;;;;31.07;16.80;;;1.20;99.90;;;;;;5062701;28;20479;-82
2023/01/24 01:40:28;;;;;;;25.63;17.27;;;1.20;99.90;;;;;;5059002;28;20748;-82
2023/01/24 01:42:56;;;;;;;29.67;18.20;;;1.20;99.90;;;;;;5061952;28;20757;-81
2023/01/24 01:45:36;;;;;;;30.57;18.80;;;1.10;99.90;;;;;;5061758;28;21042;-81
2023/01/24 01:48:13;;;;;;;28.10;16.77;;;1.10;99.90;;;;;;5064080;28;20973;-81
2023/01/24 01:50:44;;;;;;;22.90;14.50;;;1.10;99.90;;;;;;5061047;28;20532;-81
2023/01/24 01:53:12;;;;;;;23.97;13.77;;;1.10;99.90;;;;;;5064029;28;20452;-81
2023/01/24 01:55:44;;;;;;;23.70;17.10;;;1.20;99.90;;;;;;5062565;28;20795;-82
2023/01/24 01:58:12;;;;;;;22.80;14.60;;;1.10;99.90;;;;;;5062257;28;20742;-81
2023/01/24 02:00:49;;;;;;;29.30;15.70;;;1.10;99.90;;;;;;5062082;28;20464;-81
2023/01/24 02:03:40;;;;;;;26.67;17.63;;;1.10;99.90;;;;;;5061032;28;20562;-81
2023/01/24 02:06:16;;;;;;;25.60;16.73;;;1.10;99.90;;;;;;5058494;28;20468;-82
2023/01/24 02:08:44;;;;;;;26.00;15.30;;;1.10;99.90;;;;;;5058655;28;20480;-81
2023/01/24 02:16:41;;;;;;;23.00;15.23;;;1.20;99.90;;;;;;5031609;28;20462;-81
2023/01/24 02:19:21;;;;;;;26.13;16.97;;;1.10;99.90;;;;;;5062726;28;20498;-81
2023/01/24 02:21:57;;;;;;;27.53;17.07;;;1.10;99.90;;;;;;5062971;28;20565;-81
2023/01/24 02:24:33;;;;;;;25.83;17.63;;;1.10;99.90;;;;;;5063800;28;20452;-81
2023/01/24 02:27:01;;;;;;;24.83;16.47;;;1.10;99.90;;;;;;5060115;28;20916;-81
2023/01/24 02:29:32;;;;;;;21.70;14.90;;;1.20;99.90;;;;;;5061738;28;20626;-80
2023/01/24 02:32:00;;;;;;;26.80;15.87;;;1.20;99.90;;;;;;5069945;28;20460;-81
2023/01/24 02:34:29;;;;;;;29.07;16.63;;;1.10;99.90;;;;;;5059641;28;20544;-81
2023/01/24 02:36:59;;;;;;;25.17;17.03;;;1.10;99.90;;;;;;5059167;28;20839;-80
2023/01/24 02:39:30;;;;;;;20.90;14.30;;;1.10;99.90;;;;;;5072226;28;20543;-81
2023/01/24 02:42:03;;;;;;;24.20;16.87;;;1.10;99.90;;;;;;5061814;28;20547;-81
2023/01/24 02:44:36;;;;;;;31.37;16.43;;;1.10;99.90;;;;;;5063356;28;20565;-81
2023/01/24 02:47:03;;;;;;;26.37;16.80;;;1.10;99.90;;;;;;5068559;28;20444;-81
2023/01/24 02:49:30;;;;;;;25.43;16.87;;;1.10;99.90;;;;;;5060961;28;20488;-81
2023/01/24 02:54:42;;;;;;;26.63;16.80;;;1.00;99.90;;;;;;5060721;28;20463;-81
2023/01/24 02:59:54;;;;;;;24.00;15.53;;;1.10;99.90;;;;;;5059930;28;20460;-81
2023/01/24 03:02:21;;;;;;;30.77;17.43;;;1.20;99.90;;;;;;5060995;28;20493;-81
2023/01/24 03:04:48;;;;;;;27.70;16.60;;;1.20;99.90;;;;;;5061226;28;20464;-81
2023/01/24 03:07:15;;;;;;;30.20;18.20;;;1.10;99.90;;;;;;5060957;28;20541;-81
2023/01/24 03:09:47;;;;;;;31.40;15.77;;;1.10;99.90;;;;;;5059648;28;20815;-81
2023/01/24 03:34:33;;;;;;;24.03;13.27;;;1.20;99.90;;;;;;5071245;28;20420;-81
2023/01/24 03:37:01;;;;;;;23.97;15.20;;;1.20;99.90;;;;;;5061524;28;20801;-81
2023/01/24 03:42:13;;;;;;;24.03;15.87;;;1.20;99.90;;;;;;5063112;28;20887;-81
2023/01/24 03:44:41;;;;;;;24.47;14.53;;;1.20;99.90;;;;;;5058351;28;20488;-81
2023/01/24 03:47:10;;;;;;;20.67;15.23;;;1.20;99.90;;;;;;5060777;28;20476;-81
2023/01/24 03:52:30;;;;;;;21.40;14.90;;;1.20;99.90;;;;;;5072870;28;20442;-81
2023/01/24 03:54:58;;;;;;;26.40;13.23;;;1.20;99.90;;;;;;5060332;28;20460;-81
2023/01/24 03:57:28;;;;;;;27.93;14.87;;;1.20;99.90;;;;;;5062055;28;20460;-81
2023/01/24 03:59:58;;;;;;;23.37;15.20;;;1.20;99.90;;;;;;5054590;28;20533;-81
2023/01/24 04:02:25;;;;;;;21.50;14.03;;;1.20;99.90;;;;;;5068777;28;20861;-81
2023/01/24 04:07:37;;;;;;;25.63;14.57;;;1.10;99.90;;;;;;5065937;28;20455;-81
2023/01/24 04:10:04;;;;;;;21.77;13.70;;;1.20;99.90;;;;;;5060696;28;20448;-81
2023/01/24 04:12:34;;;;;;;24.90;15.07;;;1.10;99.90;;;;;;5064429;28;20464;-81
2023/01/24 04:15:03;;;;;;;23.60;14.03;;;1.10;99.90;;;;;;5053095;28;20502;-81
2023/01/24 04:17:35;;;;;;;28.67;15.50;;;1.20;99.90;;;;;;5064926;28;20550;-81
2023/01/24 04:20:02;;;;;;;19.60;14.10;;;1.10;99.90;;;;;;5063161;28;20459;-81
2023/01/24 04:22:29;;;;;;;17.87;13.60;;;1.10;99.90;;;;;;5061498;28;20954;-81
2023/01/24 04:24:56;;;;;;;22.57;14.47;;;1.10;99.90;;;;;;5065256;28;20519;-81
2023/01/24 04:27:23;;;;;;;26.23;16.50;;;1.10;99.90;;;;;;5063862;28;20480;-81
2023/01/24 04:29:52;;;;;;;23.20;15.10;;;1.10;99.90;;;;;;5059427;28;20464;-81
2023/01/24 04:32:29;;;;;;;20.83;14.30;;;1.10;99.90;;;;;;5065236;28;20464;-85
2023/01/24 04:34:56;;;;;;;22.53;15.40;;;1.10;99.90;;;;;;5062516;28;20443;-82
2023/01/24 04:37:22;;;;;;;23.43;13.43;;;1.10;99.90;;;;;;5061456;28;20623;-81
2023/01/24 04:39:49;;;;;;;24.53;14.73;;;1.10;99.90;;;;;;5064077;28;20448;-82
2023/01/24 04:42:16;;;;;;;24.77;14.57;;;1.10;99.90;;;;;;5065012;28;20919;-82
2023/01/24 04:44:43;;;;;;;25.43;15.20;;;1.10;99.90;;;;;;5062952;28;20508;-81
2023/01/24 04:47:10;;;;;;;20.43;13.97;;;1.00;99.90;;;;;;5064346;28;20541;-81
2023/01/24 04:49:38;;;;;;;21.93;12.33;;;1.10;99.90;;;;;;5064572;28;20846;-82
2023/01/24 04:52:05;;;;;;;28.03;15.20;;;1.00;99.90;;;;;;5066078;28;20763;-82
2023/01/24 04:54:35;;;;;;;26.40;15.60;;;1.00;99.90;;;;;;5063735;28;20452;-83
2023/01/24 04:57:02;;;;;;;22.90;14.23;;;1.00;99.90;;;;;;5061697;28;22058;-82
2023/01/24 04:59:29;;;;;;;23.57;16.13;;;1.00;99.90;;;;;;5070849;28;20937;-83
2023/01/24 05:01:56;;;;;;;23.53;14.30;;;1.00;99.90;;;;;;5061584;28;20479;-82
2023/01/24 05:04:23;;;;;;;19.93;13.93;;;1.00;99.90;;;;;;5061217;28;20889;-83
2023/01/24 05:06:51;;;;;;;32.73;17.10;;;1.00;99.90;;;;;;5057062;28;20507;-83
2023/01/24 05:09:18;;;;;;;25.20;15.20;;;1.00;99.90;;;;;;5062377;28;20485;-82
2023/01/24 05:11:47;;;;;;;22.73;14.13;;;1.00;99.90;;;;;;5062091;28;20570;-83
2023/01/24 05:14:16;;;;;;;24.13;15.90;;;1.10;99.90;;;;;;5060991;28;20785;-82
2023/01/24 05:16:43;;;;;;;22.33;14.23;;;1.10;99.90;;;;;;5065402;28;20491;-83
2023/01/24 05:19:10;;;;;;;23.13;14.90;;;1.00;99.90;;;;;;5065610;28;20521;-82
2023/01/24 05:21:40;;;;;;;23.67;13.77;;;1.00;99.90;;;;;;5064521;28;20920;-82
2023/01/24 05:24:09;;;;;;;20.40;14.20;;;1.00;99.90;;;;;;5060830;28;20571;-83
2023/01/24 05:26:35;;;;;;;30.13;17.33;;;1.00;99.90;;;;;;5056218;28;20836;-80
2023/01/24 05:29:05;;;;;;;27.50;16.90;;;1.00;99.90;;;;;;5061451;28;20815;-80
2023/01/24 05:31:32;;;;;;;32.00;16.70;;;1.00;99.90;;;;;;5063567;28;20482;-80
2023/01/24 05:33:59;;;;;;;22.27;14.40;;;1.00;99.90;;;;;;5063042;28;20502;-83
2023/01/24 05:36:26;;;;;;;22.67;16.50;;;1.00;99.90;;;;;;5063178;28;20917;-82
2023/01/24 05:38:53;;;;;;;25.63;16.77;;;1.00;99.90;;;;;;5062553;28;20436;-81
2023/01/24 05:41:21;;;;;;;27.73;16.20;;;1.10;99.90;;;;;;5058230;28;20491;-81
2023/01/24 05:43:49;;;;;;;31.27;17.03;;;1.10;99.90;;;;;;5057293;28;20520;-80
2023/01/24 05:46:18;;;;;;;22.40;15.50;;;1.10;99.90;;;;;;5062910;28;20448;-81
2023/01/24 05:48:46;;;;;;;15.97;13.17;;;1.10;99.90;;;;;;5059946;28;21445;-81
2023/01/24 05:51:15;;;;;;;23.80;15.53;;;1.10;99.90;;;;;;5059316;28;20917;-81
2023/01/24 05:53:46;;;;;;;26.73;15.83;;;1.10;99.90;;;;;;5055522;28;20904;-83
2023/01/24 05:56:16;;;;;;;19.27;13.80;;;1.10;99.90;;;;;;5057007;28;20513;-83
2023/01/24 05:58:48;;;;;;;27.10;14.97;;;1.10;99.90;;;;;;5053765;28;20489;-83
2023/01/24 06:01:18;;;;;;;28.03;15.20;;;1.10;99.90;;;;;;5061122;28;20722;-80
2023/01/24 06:03:46;;;;;;;25.57;15.30;;;1.10;99.90;;;;;;5057925;28;20587;-81
2023/01/24 06:06:15;;;;;;;22.30;15.07;;;1.10;99.90;;;;;;5053853;28;20546;-80
2023/01/24 06:08:42;;;;;;;21.87;14.50;;;1.20;99.90;;;;;;5060500;28;20561;-81
2023/01/24 06:11:13;;;;;;;22.37;15.27;;;1.20;99.90;;;;;;5059395;28;20960;-81
2023/01/24 06:13:45;;;;;;;23.23;15.97;;;1.20;99.90;;;;;;5055824;28;20459;-82
2023/01/24 06:16:14;;;;;;;22.90;15.20;;;1.20;99.90;;;;;;5053000;28;22035;-82
2023/01/24 06:18:41;;;;;;;24.57;16.03;;;1.20;99.90;;;;;;5056760;28;20493;-82
2023/01/24 06:21:16;;;;;;;22.97;14.60;;;1.10;99.90;;;;;;5055853;28;20483;-82
2023/01/24 06:23:43;;;;;;;26.83;14.73;;;1.10;99.90;;;;;;5059598;28;20511;-82
2023/01/24 06:26:13;;;;;;;26.70;14.90;;;1.10;99.90;;;;;;5058855;28;20532;-82
2023/01/24 06:28:42;;;;;;;28.27;18.50;;;1.10;99.90;;;;;;5055782;28;21055;-82
2023/01/24 06:31:21;;;;;;;25.93;15.03;;;1.10;99.90;;;;;;5060678;28;20544;-82
2023/01/24 06:34:01;;;;;;;30.97;18.10;;;1.20;99.90;;;;;;5058422;28;20532;-82
2023/01/24 06:36:48;;;;;;;27.70;18.40;;;1.10;99.90;;;;;;5060094;28;20593;-82
2023/01/24 06:39:16;;;;;;;25.63;17.07;;;1.20;99.90;;;;;;5058205;28;20460;-83
2023/01/24 06:41:43;;;;;;;29.03;16.73;;;1.10;99.90;;;;;;5055339;28;20838;-82
2023/01/24 06:44:11;;;;;;;29.27;16.50;;;1.20;99.90;;;;;;5055758;28;20523;-82
2023/01/24 06:46:40;;;;;;;26.60;18.83;;;1.20;99.90;;;;;;5062541;28;20987;-82
2023/01/24 06:49:09;;;;;;;27.57;16.00;;;1.20;99.90;;;;;;5053320;28;21252;-83
2023/01/24 06:51:36;;;;;;;28.70;17.07;;;1.20;99.90;;;;;;5055899;28;20517;-82
2023/01/24 06:54:03;;;;;;;26.10;17.60;;;1.20;99.90;;;;;;5060732;28;20981;-82
2023/01/24 06:56:30;;;;;;;25.57;16.20;;;1.20;99.90;;;;;;5062070;28;20492;-81
2023/01/24 06:59:03;;;;;;;26.47;17.17;;;1.20;99.90;;;;;;5061970;28;20453;-82
2023/01/24 07:01:32;;;;;;;25.37;16.87;;;1.20;99.90;;;;;;5056819;28;20468;-82
2023/01/24 07:04:13;;;;;;;30.97;19.07;;;1.20;99.90;;;;;;5060153;28;20534;-82
2023/01/24 07:06:40;;;;;;;32.30;17.63;;;1.20;99.90;;;;;;5060165;28;20474;-82
2023/01/24 07:09:07;;;;;;;28.43;16.87;;;1.20;99.90;;;;;;5060400;28;20444;-82
2023/01/24 07:11:34;;;;;;;35.23;19.40;;;1.20;99.90;;;;;;5062848;28;20484;-82
2023/01/24 07:14:01;;;;;;;56.17;33.30;;;1.20;99.90;;;;;;5058189;28;20506;-82
2023/01/24 07:16:28;;;;;;;34.90;20.00;;;1.20;99.90;;;;;;5057833;28;20976;-82
2023/01/24 07:18:56;;;;;;;29.83;18.50;;;1.30;99.90;;;;;;5058177;28;21054;-82
2023/01/24 07:21:25;;;;;;;29.93;20.47;;;1.20;99.90;;;;;;5059135;28;20571;-81
2023/01/24 07:23:56;;;;;;;77.63;46.90;;;1.20;99.90;;;;;;5056397;28;20516;-82
2023/01/24 07:26:23;;;;;;;37.50;22.40;;;1.20;99.90;;;;;;5061724;28;21018;-82
2023/01/24 07:28:50;;;;;;;33.07;20.77;;;1.20;99.90;;;;;;5052233;28;20517;-81
2023/01/24 07:31:18;;;;;;;39.50;22.00;;;1.30;99.90;;;;;;5059587;28;20549;-82
2023/01/24 07:33:44;;;;;;;31.83;18.50;;;1.20;99.90;;;;;;5054475;28;20496;-82
2023/01/24 07:36:15;;;;;;;36.40;21.10;;;1.30;99.90;;;;;;5057856;28;20510;-82
2023/01/24 07:38:47;;;;;;;39.70;18.77;;;1.30;99.90;;;;;;5059233;28;20488;-82
2023/01/24 07:41:14;;;;;;;31.60;17.43;;;1.30;99.90;;;;;;5061312;28;20448;-82
2023/01/24 07:43:41;;;;;;;27.10;18.70;;;1.40;99.90;;;;;;5066852;28;20456;-82
2023/01/24 07:46:08;;;;;;;32.03;20.60;;;1.40;99.90;;;;;;5057438;28;20505;-81
2023/01/24 07:48:35;;;;;;;28.60;17.20;;;1.40;99.90;;;;;;5067889;28;20914;-81
2023/01/24 07:51:02;;;;;;;33.77;21.97;;;1.40;99.90;;;;;;5062104;28;20471;-81
2023/01/24 07:53:32;;;;;;;28.70;18.30;;;1.50;99.90;;;;;;5068135;28;20524;-82
2023/01/24 07:56:01;;;;;;;33.83;20.90;;;1.50;99.90;;;;;;5062981;28;20496;-81
2023/01/24 07:58:28;;;;;;;38.53;23.90;;;1.50;99.90;;;;;;5065557;28;20476;-82
2023/01/24 08:00:55;;;;;;;79.80;54.13;;;1.70;99.90;;;;;;5057293;28;20553;-82
2023/01/24 08:03:30;;;;;;;38.20;22.17;;;1.60;99.90;;;;;;5066050;28;20484;-81
2023/01/24 08:05:57;;;;;;;32.17;18.70;;;1.60;99.90;;;;;;5061868;28;20466;-82
2023/01/24 08:08:24;;;;;;;28.77;17.03;;;1.50;99.90;;;;;;5065322;28;20526;-82
2023/01/24 08:10:53;;;;;;;24.90;19.10;;;1.50;99.90;;;;;;5055869;28;20494;-82
2023/01/24 08:13:22;;;;;;;23.07;14.47;;;1.50;99.90;;;;;;5062373;28;20537;-81
2023/01/24 08:15:49;;;;;;;26.00;15.87;;;1.50;99.90;;;;;;5063117;28;20928;-81
2023/01/24 08:18:17;;;;;;;33.20;21.00;;;1.50;99.90;;;;;;5057116;28;20491;-81
2023/01/24 08:20:44;;;;;;;28.33;18.23;;;1.60;99.90;;;;;;5059836;28;21244;-81
2023/01/24 08:23:11;;;;;;;24.37;18.10;;;1.60;99.90;;;;;;5060469;28;20500;-81
2023/01/24 08:25:38;;;;;;;24.93;17.77;;;1.70;99.90;;;;;;5062579;28;20971;-81
2023/01/24 08:28:05;;;;;;;28.67;17.20;;;1.60;99.90;;;;;;5066455;28;20529;-81
2023/01/24 08:30:33;;;;;;;29.97;17.03;;;1.60;99.90;;;;;;5065388;28;20467;-82
2023/01/24 08:33:01;;;;;;;28.93;18.13;;;1.70;99.90;;;;;;5065530;28;20456;-82
2023/01/24 08:35:28;;;;;;;27.43;16.80;;;1.60;99.90;;;;;;5062064;28;20488;-81
2023/01/24 08:37:57;;;;;;;25.50;16.87;;;1.70;99.90;;;;;;5064041;28;20447;-81
2023/01/24 08:40:28;;;;;;;22.30;14.57;;;1.60;99.90;;;;;;5065212;28;20455;-81
2023/01/24 08:42:55;;;;;;;27.90;16.60;;;1.70;99.90;;;;;;5060275;28;20843;-81
2023/01/24 08:45:30;;;;;;;25.90;15.60;;;1.70;99.90;;;;;;5060343;28;20520;-82
2023/01/24 08:47:59;;;;;;;25.47;14.93;;;1.80;99.90;;;;;;5064368;28;20460;-81
2023/01/24 08:50:26;;;;;;;23.30;14.40;;;1.80;99.90;;;;;;5065159;28;20478;-81
2023/01/24 08:52:58;;;;;;;24.53;16.43;;;1.80;99.90;;;;;;5056373;28;20477;-81
2023/01/24 08:55:25;;;;;;;31.87;16.97;;;1.80;99.90;;;;;;5065554;28;21069;-81
2023/01/24 08:57:54;;;;;;;27.80;16.50;;;2.00;99.90;;;;;;5064572;28;20545;-82
2023/01/24 09:00:26;;;;;;;24.13;15.47;;;2.10;99.90;;;;;;5055036;28;20794;-81
2023/01/24 09:02:53;;;;;;;27.70;17.20;;;2.10;99.90;;;;;;5058577;28;20457;-81
2023/01/24 09:05:21;;;;;;;24.63;14.70;;;2.10;99.90;;;;;;5052933;28;21201;-81
2023/01/24 09:07:48;;;;;;;32.23;18.10;;;2.10;99.90;;;;;;5057225;28;20457;-81
2023/01/24 09:10:15;;;;;;;27.53;17.60;;;2.00;99.90;;;;;;5050126;28;20908;-81
2023/01/24 09:12:45;;;;;;;22.73;14.43;;;2.10;99.90;;;;;;5065152;28;20472;-81
2023/01/24 09:15:14;;;;;;;24.30;15.10;;;2.00;99.90;;;;;;5064539;28;20514;-81
2023/01/24 09:17:44;;;;;;;28.83;18.43;;;2.10;99.90;;;;;;5065207;28;20549;-81
2023/01/24 09:20:11;;;;;;;32.00;18.17;;;2.10;99.90;;;;;;5061131;28;20498;-81
2023/01/24 09:22:42;;;;;;;25.53;15.93;;;2.00;99.90;;;;;;5064102;28;20488;-81
2023/01/24 09:25:10;;;;;;;22.17;15.50;;;2.10;99.90;;;;;;5063347;28;20503;-81
2023/01/24 09:27:37;;;;;;;24.67;15.03;;;2.10;99.90;;;;;;5064174;28;20954;-81
2023/01/24 09:30:06;;;;;;;27.97;14.83;;;2.00;99.90;;;;;;5058428;28;20476;-81
2023/01/24 09:32:33;;;;;;;31.87;17.90;;;2.00;99.90;;;;;;5061635;28;20474;-81
2023/01/24 09:35:08;;;;;;;25.53;15.50;;;2.10;99.90;;;;;;5054082;28;20573;-81
2023/01/24 09:37:35;;;;;;;27.97;15.83;;;2.10;99.90;;;;;;5065961;28;20462;-81
2023/01/24 09:40:06;;;;;;;36.53;15.90;;;2.10;99.90;;;;;;5061530;28;20522;-81
2023/01/24 09:42:40;;;;;;;26.67;16.10;;;2.10;99.90;;;;;;5060364;28;20464;-81
2023/01/24 09:45:19;;;;;;;25.10;17.53;;;2.10;99.90;;;;;;5053296;28;20513;-81
2023/01/24 09:47:51;;;;;;;21.83;14.97;;;2.10;99.90;;;;;;5062044;28;20466;-81
2023/01/24 09:50:23;;;;;;;23.63;15.13;;;2.20;99.90;;;;;;5056869;28;20952;-81
2023/01/24 09:52:54;;;;;;;24.00;15.70;;;2.30;99.90;;;;;;5064132;28;20457;-81
2023/01/24 09:55:29;;;;;;;30.40;17.30;;;2.50;99.90;;;;;;5057646;28;20925;-81
2023/01/24 09:57:59;;;;;;;30.53;17.83;;;2.60;99.90;;;;;;5063637;28;20491;-81
2023/01/24 10:00:31;;;;;;;35.00;17.20;;;2.60;99.90;;;;;;5060364;28;20492;-81
2023/01/24 10:03:00;;;;;;;35.70;18.97;;;2.80;99.90;;;;;;5057823;28;20488;-81
2023/01/24 10:05:35;;;;;;;27.33;14.93;;;2.70;99.90;;;;;;5062601;28;20516;-81
2023/01/24 10:08:18;;;;;;;26.17;15.53;;;2.80;99.90;;;;;;5053218;28;20549;-81
2023/01/24 10:10:54;;;;;;;24.87;16.67;;;2.60;99.90;;;;;;5064197;28;20480;-81
2023/01/24 10:13:50;;;;;;;25.73;15.87;;;2.50;99.90;;;;;;5061507;28;20459;-81
2023/01/24 10:16:35;;;;;;;26.57;15.23;;;2.50;99.90;;;;;;5031015;28;20906;-81
2023/01/24 10:19:17;;;;;;;29.57;17.00;;;2.60;99.90;;;;;;5060891;28;20475;-81
2023/01/24 10:22:02;;;;;;;33.13;14.70;;;2.60;99.90;;;;;;5058614;28;20496;-81
2023/01/24 10:24:33;;;;;;;27.50;17.63;;;2.70;99.90;;;;;;5065184;28;20458;-81
2023/01/24 10:27:02;;;;;;;25.40;13.47;;;2.80;99.90;;;;;;5060953;28;20503;-81
2023/01/24 10:29:32;;;;;;;23.70;14.87;;;2.80;99.90;;;;;;5058815;28;20484;-81
2023/01/24 10:32:06;;;;;;;31.13;16.33;;;2.80;99.90;;;;;;5057854;28;20496;-81
2023/01/24 10:34:39;;;;;;;25.93;15.67;;;2.90;99.90;;;;;;5062789;28;20507;-81
2023/01/24 10:37:17;;;;;;;31.23;17.90;;;2.80;99.90;;;;;;5056253;28;20453;-82
2023/01/24 10:39:44;;;;;;;28.30;15.37;;;2.80;99.90;;;;;;5059382;28;21032;-82
2023/01/24 10:42:24;;;;;;;30.00;15.87;;;2.70;99.90;;;;;;5059675;28;20468;-82
2023/01/24 10:44:54;;;;;;;25.90;15.30;;;2.60;99.90;;;;;;5059462;28;20503;-82
2023/01/24 10:47:48;;;;;;;24.57;15.70;;;2.80;99.90;;;;;;5062246;28;20547;-82
2023/01/24 10:50:17;;;;;;;20.40;13.73;;;2.80;99.90;;;;;;5062725;28;20811;-82
2023/01/24 10:52:48;;;;;;;23.10;13.50;;;2.80;99.90;;;;;;5058272;28;20496;-82
2023/01/24 10:55:34;;;;;;;24.83;14.73;;;2.60;99.90;;;;;;5062531;28;20479;-82
2023/01/24 10:58:04;;;;;;;25.67;14.87;;;2.70;99.90;;;;;;5059540;28;20464;-82
2023/01/24 11:00:33;;;;;;;28.83;16.00;;;2.60;99.90;;;;;;5054689;28;20505;-82
2023/01/24 11:03:03;;;;;;;25.10;14.97;;;2.60;99.90;;;;;;5063039;28;20510;-82
2023/01/24 11:05:39;;;;;;;22.60;14.27;;;2.60;99.90;;;;;;5054538;28;21158;-81
2023/01/24 11:08:08;;;;;;;28.27;16.10;;;2.40;99.90;;;;;;5062087;28;20917;-81
2023/01/24 11:10:38;;;;;;;22.80;13.07;;;2.30;99.90;;;;;;5061609;28;20453;-81
2023/01/24 11:13:26;;;;;;;27.07;13.60;;;2.40;99.90;;;;;;5058848;28;20600;-81
2023/01/24 11:16:00;;;;;;;25.57;13.27;;;2.40;99.90;;;;;;5055716;28;20510;-81
2023/01/24 11:18:28;;;;;;;29.03;16.50;;;2.50;99.90;;;;;;5061161;28;20451;-81
2023/01/24 11:21:07;;;;;;;22.33;15.13;;;2.70;99.90;;;;;;5059569;28;20448;-81
2023/01/24 11:23:34;;;;;;;29.20;15.37;;;2.80;99.90;;;;;;5057415;28;21025;-81
2023/01/24 11:26:04;;;;;;;22.90;15.87;;;2.80;99.90;;;;;;5062031;28;20519;-82
2023/01/24 11:28:41;;;;;;;27.47;17.63;;;2.70;99.90;;;;;;5058984;28;20459;-81
2023/01/24 11:31:18;;;;;;;23.27;13.53;;;2.70;99.90;;;;;;5062329;28;20566;-81
2023/01/24 11:34:03;;;;;;;29.80;16.50;;;2.60;99.90;;;;;;5054368;28;20492;-81
2023/01/24 11:36:39;;;;;;;25.00;15.47;;;2.70;99.90;;;;;;5061591;28;20469;-81
2023/01/24 11:39:17;;;;;;;21.40;12.20;;;2.60;99.90;;;;;;5056705;28;20455;-81
2023/01/24 11:41:54;;;;;;;16.87;12.40;;;2.70;99.90;;;;;;5054169;28;20924;-81
2023/01/24 11:44:50;;;;;;;19.27;12.77;;;2.70;99.90;;;;;;5057282;28;20472;-81
2023/01/24 11:47:23;;;;;;;22.80;12.57;;;2.60;99.90;;;;;;5053252;28;20958;-81
2023/01/24 11:50:27;;;;;;;21.30;13.73;;;2.50;99.90;;;;;;5056807;28;20853;-81
2023/01/24 11:53:15;;;;;;;16.30;11.23;;;2.40;99.90;;;;;;5054050;28;20494;-82
2023/01/24 11:55:57;;;;;;;18.33;12.40;;;2.50;99.90;;;;;;5059240;28;20549;-82
2023/01/24 11:58:52;;;;;;;20.77;12.23;;;2.50;99.90;;;;;;5066561;28;20480;-81
2023/01/24 12:01:33;;;;;;;20.23;12.80;;;2.50;99.90;;;;;;5061436;28;20451;-81
2023/01/24 12:04:17;;;;;;;17.90;11.77;;;2.40;99.90;;;;;;5064341;28;20474;-81
2023/01/24 12:06:53;;;;;;;21.73;11.80;;;2.40;99.90;;;;;;5057541;28;21040;-81
2023/01/24 12:09:24;;;;;;;19.07;13.13;;;2.40;99.90;;;;;;5054542;28;20884;-81
2023/01/24 12:12:05;;;;;;;23.23;14.93;;;2.40;99.90;;;;;;5061108;28;20942;-81
2023/01/24 12:15:11;;;;;;;24.57;13.50;;;2.40;99.90;;;;;;5055248;28;20496;-82
2023/01/24 12:17:59;;;;;;;19.73;12.37;;;2.30;99.90;;;;;;5060400;28;20472;-82
2023/01/24 12:20:48;;;;;;;26.47;14.90;;;2.30;99.90;;;;;;5057728;28;20495;-81
2023/01/24 12:23:31;;;;;;;22.10;14.03;;;2.30;99.90;;;;;;5058386;28;20470;-81
2023/01/24 12:26:04;;;;;;;21.23;11.33;;;2.30;99.90;;;;;;5059054;28;20520;-83
2023/01/24 12:28:36;;;;;;;25.70;16.37;;;2.30;99.90;;;;;;5059800;28;20553;-83
2023/01/24 12:31:08;;;;;;;25.67;13.37;;;2.40;99.90;;;;;;5061613;28;20890;-82
2023/01/24 12:33:43;;;;;;;26.50;14.07;;;2.40;99.90;;;;;;5067822;28;20525;-82
2023/01/24 12:36:17;;;;;;;22.30;14.53;;;2.40;99.90;;;;;;5056028;28;20463;-83
2023/01/24 12:38:49;;;;;;;29.30;14.43;;;2.40;99.90;;;;;;5065548;28;20532;-82
2023/01/24 12:41:23;;;;;;;22.83;13.17;;;2.40;99.90;;;;;;5058010;28;20532;-83
2023/01/24 12:43:59;;;;;;;28.03;15.10;;;2.50;99.90;;;;;;5067308;28;20472;-83
2023/01/24 12:46:32;;;;;;;25.40;14.80;;;2.50;99.90;;;;;;5066579;28;20557;-82
2023/01/24 12:49:12;;;;;;;21.60;14.40;;;2.40;99.90;;;;;;5066326;28;20555;-83
2023/01/24 12:51:43;;;;;;;26.30;14.40;;;2.30;99.90;;;;;;5053770;28;20505;-83
2023/01/24 12:54:15;;;;;;;25.23;14.27;;;2.30;99.90;;;;;;5059126;28;20513;-83
2023/01/24 12:56:52;;;;;;;24.70;15.57;;;2.20;99.90;;;;;;5065925;28;20436;-82
2023/01/24 12:59:28;;;;;;;21.07;13.33;;;2.20;99.90;;;;;;5063643;28;20517;-82
2023/01/24 13:02:31;;;;;;;19.20;14.20;;;2.10;99.90;;;;;;5064757;28;20462;-83
2023/01/24 13:05:15;;;;;;;25.10;15.67;;;2.10;99.90;;;;;;5062502;28;20472;-83
2023/01/24 13:07:52;;;;;;;21.80;12.77;;;2.20;99.90;;;;;;5064657;28;20858;-83
2023/01/24 13:10:25;;;;;;;30.47;13.47;;;2.20;99.90;;;;;;5065227;28;20475;-83
2023/01/24 13:12:53;;;;;;;30.50;16.20;;;2.20;99.90;;;;;;5062835;28;20484;-83
2023/01/24 13:15:25;;;;;;;23.30;14.03;;;2.20;99.90;;;;;;5058782;28;20971;-83
2023/01/24 13:18:26;;;;;;;25.87;13.83;;;2.20;99.90;;;;;;5064635;28;20828;-83
2023/01/24 13:21:07;;;;;;;27.37;15.10;;;2.20;99.90;;;;;;5060357;28;20456;-83
2023/01/24 13:23:52;;;;;;;28.17;16.80;;;2.20;99.90;;;;;;5063153;28;20560;-83
2023/01/24 13:26:46;;;;;;;21.50;14.57;;;2.20;99.90;;;;;;5060753;28;20487;-82
2023/01/24 13:29:26;;;;;;;24.93;15.97;;;2.20;99.90;;;;;;5060841;28;20499;-82
2023/01/24 13:32:03;;;;;;;36.70;17.33;;;2.20;99.90;;;;;;5065595;28;20478;-82
2023/01/24 13:34:35;;;;;;;37.97;17.20;;;2.10;99.90;;;;;;5063385;28;21100;-82
2023/01/24 13:37:08;;;;;;;22.00;14.30;;;2.10;99.90;;;;;;5062941;28;20502;-80
2023/01/24 13:39:39;;;;;;;26.97;16.07;;;2.30;99.90;;;;;;5065319;28;20502;-80